Aviation Digital Data Service (ADDS)

Output produced by METARs form (0211 UTC 16 January 2019)
found at http://www.aviationweather.gov/metar/data/
 
TAF AMD SYCJ 160140Z 1602/1624 06004KT 9999 FEW017 BKN034 
     TEMPO 1606/1612 7000 SHRA BKN014 
     BECMG 1612/1614 09008KT 9999 BKN018 BKN038